Airfield :
LOGIN :

Register | Disclaimer

   EN    FR    IT 

 










Legend :    VFR   Marginal VFR   IFR   Intensive IFR   Very Intensive IFR
Visi :
Ceiling :
>= 8 km
>= 3000ft
5 to 8 km
1000 to 3000 ft
1500m to 5 km
500 to 1000 ft
800 to 1500m
200 to 500 ft
< 800m
< 200 ft
Symbols :   Thunderstorms  Fog  Heavy snow  Heavy precipitations  Wind > 20 kt
SIGMETs :     Misc.  Thunderstorms  Icing  Turbulence  Mountain Waves  Volcanic Ashes






- Airport Elevation : 1300 ft
- IATA code : LIG


LFBL - Limoges

CURRENT METAR :
  • 250430Z AUTO VRB03KT CAVOK 01/01 Q1005 TEMPO 4000 BR BKN002

EXPIRED METARs :
  • 250400Z AUTO 23004KT CAVOK 01/00 Q1005 TEMPO 4000 BR BKN002
  • 250330Z AUTO VRB03KT CAVOK 01/01 Q1005 TEMPO 4000 BR BKN002
  • 250300Z AUTO 26004KT 230V290 CAVOK 01/01 Q1005 TEMPO 4000 BR BKN002
  • 250230Z AUTO 25004KT 220V290 CAVOK 01/01 Q1005 TEMPO 4000 BR BKN002
  • 250200Z AUTO 28006KT 250V310 CAVOK 02/01 Q1005 TEMPO 4000 BR BKN002

TAF TAF LFBL
Valid from the 25 at 00:00 until the 26 at 00:00 UTC


242300Z 2500/2524 27008KT 9999 BKN005 OVC010
BECMG 2502/2504 SCT003 BKN040
PROB30
TEMPO 2502/2508 4000 BR BKN002
BECMG 2509/2511 SCT018 BKN025
BECMG 2513/2515 36010KT SCT030
BECMG 2519/2521 VRB03KT CAVOK
ATIS : +33 5 55 48 40 37



MET'MAP, your aeronautical weather chart ! - Copyright ORBIFLY December 2007 - Disclaimer

ORBIFLY MET'MAP TEAM :

Programming & Development : Alexandra Zaïnal
Concept & original design : Baudouin d'Aumeries
Assistance for programming : Marc-Olivier Méhu
Technical & hardware support : Manuel Goepfert

Contact : metmap@orbifly.com




SOURCES & CREDITS :

   NOAA